Time;durP1;ratioP1;P1;durP2;ratioP2;P2;SDS_P1;SDS_P2;PMS_P1;PMS_P2;Temp;Humidity;BMP_temperature;BMP_pressure;BME280_temperature;BME280_humidity;BME280_pressure;Samples;Min_cycle;Max_cycle;Signal;HPM_P1;HPM_P2
2024/03/15 00:01:11;;;;;;;;;;;;;;;;;;5082910;28;20303;-73
2024/03/15 00:03:38;;;;;;;;;;;;;;;;;;5098995;28;20435;-74
2024/03/15 00:06:05;;;;;;;;;;;;;;;;;;5104271;28;19930;-72
2024/03/15 00:08:32;;;;;;;;;;;;;;;;;;5086051;28;20372;-74
2024/03/15 00:10:59;;;;;;;;;;;;;;;;;;5105628;28;19934;-74
2024/03/15 00:13:25;;;;;;;;;;;;;;;;;;5079365;28;19992;-74
2024/03/15 00:15:52;;;;;;;;;;;;;;;;;;5105769;28;19971;-74
2024/03/15 00:18:18;;;;;;;;;;;;;;;;;;5095134;28;20023;-73
2024/03/15 00:20:49;;;;;;;;;;;;;;;;;;5097247;28;19947;-73
2024/03/15 00:23:17;;;;;;;;;;;;;;;;;;5078100;28;19924;-73
2024/03/15 00:25:43;;;;;;;;;;;;;;;;;;5094740;28;19923;-72
2024/03/15 00:28:11;;;;;;;;;;;;;;;;;;5104180;28;19932;-72
2024/03/15 00:30:37;;;;;;;;;;;;;;;;;;5076786;28;20022;-74
2024/03/15 00:33:03;;;;;;;;;;;;;;;;;;5092334;28;20362;-73
2024/03/15 00:35:30;;;;;;;;;;;;;;;;;;5101073;28;20430;-72
2024/03/15 00:37:57;;;;;;;;;;;;;;;;;;5090733;28;19982;-73
2024/03/15 00:40:23;;;;;;;;;;;;;;;;;;5100516;28;20026;-73
2024/03/15 00:42:50;;;;;;;;;;;;;;;;;;5094228;28;19925;-73
2024/03/15 00:45:16;;;;;;;;;;;;;;;;;;5094555;28;20441;-72
2024/03/15 00:47:44;;;;;;;;;;;;;;;;;;5091081;28;20018;-73
2024/03/15 00:50:11;;;;;;;;;;;;;;;;;;5096779;28;20006;-74
2024/03/15 00:52:37;;;;;;;;;;;;;;;;;;5079370;28;20376;-73
2024/03/15 00:55:04;;;;;;;;;;;;;;;;;;5091418;28;20014;-73
2024/03/15 00:57:30;;;;;;;;;;;;;;;;;;5090287;28;20354;-74
2024/03/15 00:59:57;;;;;;;;;;;;;;;;;;5100631;28;19928;-74
2024/03/15 01:02:23;;;;;;;;;;;;;;;;;;5086978;28;19925;-74
2024/03/15 01:04:52;;;;;;;;;;;;;;;;;;5094336;28;19931;-73
2024/03/15 01:07:20;;;;;;;;;;;;;;;;;;5094818;28;20019;-74
2024/03/15 01:09:46;;;;;;;;;;;;;;;;;;5087006;28;19968;-74
2024/03/15 01:12:14;;;;;;;;;;;;;;;;;;5092289;28;19925;-73
2024/03/15 01:14:41;;;;;;;;;;;;;;;;;;5080620;28;19925;-73
2024/03/15 01:17:07;;;;;;;;;;;;;;;;;;5088104;28;19928;-73
2024/03/15 01:19:34;;;;;;;;;;;;;;;;;;5093057;28;19935;-73
2024/03/15 01:22:00;;;;;;;;;;;;;;;;;;5098690;28;19923;-72
2024/03/15 01:24:28;;;;;;;;;;;;;;;;;;5101459;28;19928;-73
2024/03/15 01:26:56;;;;;;;;;;;;;;;;;;5103738;28;20018;-73
2024/03/15 01:29:24;;;;;;;;;;;;;;;;;;5105877;28;19924;-73
2024/03/15 01:31:51;;;;;;;;;;;;;;;;;;5078218;28;19924;-74
2024/03/15 01:34:17;;;;;;;;;;;;;;;;;;5102538;28;19930;-74
2024/03/15 01:36:44;;;;;;;;;;;;;;;;;;5099080;28;19933;-73
2024/03/15 01:39:10;;;;;;;;;;;;;;;;;;5095083;28;19924;-74
2024/03/15 01:41:37;;;;;;;;;;;;;;;;;;5092037;28;19924;-73
2024/03/15 01:44:03;;;;;;;;;;;;;;;;;;5100360;28;19923;-74
2024/03/15 01:46:30;;;;;;;;;;;;;;;;;;5075116;28;19924;-72
2024/03/15 01:48:59;;;;;;;;;;;;;;;;;;5079731;28;20367;-73
2024/03/15 01:51:27;;;;;;;;;;;;;;;;;;5087247;28;20019;-74
2024/03/15 01:53:53;;;;;;;;;;;;;;;;;;5095476;28;20458;-74
2024/03/15 01:56:21;;;;;;;;;;;;;;;;;;5074710;28;20016;-72
2024/03/15 01:58:47;;;;;;;;;;;;;;;;;;5101154;28;19973;-73
2024/03/15 02:01:13;;;;;;;;;;;;;;;;;;5079982;28;20019;-73
2024/03/15 02:03:40;;;;;;;;;;;;;;;;;;5099483;28;20388;-74
2024/03/15 02:06:08;;;;;;;;;;;;;;;;;;5082318;28;19925;-73
2024/03/15 02:08:35;;;;;;;;;;;;;;;;;;5102451;28;20874;-72
2024/03/15 02:11:02;;;;;;;;;;;;;;;;;;5096198;28;19925;-73
2024/03/15 02:13:29;;;;;;;;;;;;;;;;;;5093686;28;20290;-71
2024/03/15 02:15:56;;;;;;;;;;;;;;;;;;5100271;28;19924;-74
2024/03/15 02:18:22;;;;;;;;;;;;;;;;;;5083591;28;19932;-72
2024/03/15 02:20:49;;;;;;;;;;;;;;;;;;5088907;28;19964;-73
2024/03/15 02:23:15;;;;;;;;;;;;;;;;;;5077738;28;19928;-73
2024/03/15 02:25:42;;;;;;;;;;;;;;;;;;5099930;28;19964;-73
2024/03/15 02:28:08;;;;;;;;;;;;;;;;;;5091218;28;19964;-74
2024/03/15 02:30:35;;;;;;;;;;;;;;;;;;5098120;28;19924;-74
2024/03/15 02:33:01;;;;;;;;;;;;;;;;;;5097533;28;20019;-74
2024/03/15 02:35:30;;;;;;;;;;;;;;;;;;5095908;28;19928;-73
2024/03/15 02:37:58;;;;;;;;;;;;;;;;;;5091870;28;19932;-74
2024/03/15 02:40:24;;;;;;;;;;;;;;;;;;5082593;28;20392;-73
2024/03/15 02:42:51;;;;;;;;;;;;;;;;;;5092436;28;19924;-74
2024/03/15 02:45:21;;;;;;;;;;;;;;;;;;5091477;28;19935;-74
2024/03/15 02:47:47;;;;;;;;;;;;;;;;;;5094917;28;19924;-72
2024/03/15 02:50:14;;;;;;;;;;;;;;;;;;5087629;28;19932;-72
2024/03/15 02:52:43;;;;;;;;;;;;;;;;;;5104215;28;19931;-74
2024/03/15 02:55:10;;;;;;;;;;;;;;;;;;5106011;28;20022;-74
2024/03/15 02:57:37;;;;;;;;;;;;;;;;;;5098868;28;20358;-71
2024/03/15 03:00:03;;;;;;;;;;;;;;;;;;5075123;28;19973;-73
2024/03/15 03:02:30;;;;;;;;;;;;;;;;;;5107091;28;19996;-74
2024/03/15 03:04:56;;;;;;;;;;;;;;;;;;5095245;28;19928;-74
2024/03/15 03:07:24;;;;;;;;;;;;;;;;;;5095860;28;20003;-73
2024/03/15 03:09:51;;;;;;;;;;;;;;;;;;5086175;28;19924;-74
2024/03/15 03:12:19;;;;;;;;;;;;;;;;;;5095907;28;19950;-72
2024/03/15 03:14:45;;;;;;;;;;;;;;;;;;5092609;28;20015;-73
2024/03/15 03:17:13;;;;;;;;;;;;;;;;;;5105445;28;19990;-74
2024/03/15 03:19:39;;;;;;;;;;;;;;;;;;5105343;28;19977;-72
2024/03/15 03:22:06;;;;;;;;;;;;;;;;;;5088163;28;19924;-74
2024/03/15 03:24:33;;;;;;;;;;;;;;;;;;5097192;28;20375;-73
2024/03/15 03:26:59;;;;;;;;;;;;;;;;;;5089413;28;19974;-73
2024/03/15 03:29:26;;;;;;;;;;;;;;;;;;5093465;28;19928;-74
2024/03/15 03:31:53;;;;;;;;;;;;;;;;;;5093086;28;20393;-74
2024/03/15 03:34:19;;;;;;;;;;;;;;;;;;5104213;28;19959;-74
2024/03/15 03:36:45;;;;;;;;;;;;;;;;;;5097709;28;19930;-73
2024/03/15 03:39:13;;;;;;;;;;;;;;;;;;5102526;28;19925;-75
2024/03/15 03:41:39;;;;;;;;;;;;;;;;;;5101250;28;20007;-74
2024/03/15 03:44:06;;;;;;;;;;;;;;;;;;5091966;28;20065;-72
2024/03/15 03:46:33;;;;;;;;;;;;;;;;;;5097730;28;20007;-73
2024/03/15 03:49:00;;;;;;;;;;;;;;;;;;5085453;28;20364;-72
2024/03/15 03:51:27;;;;;;;;;;;;;;;;;;5086051;28;19924;-73
2024/03/15 03:53:53;;;;;;;;;;;;;;;;;;5093057;28;19925;-73
2024/03/15 03:56:20;;;;;;;;;;;;;;;;;;5093458;28;19923;-72
2024/03/15 03:58:46;;;;;;;;;;;;;;;;;;5095542;28;20384;-72
2024/03/15 04:01:14;;;;;;;;;;;;;;;;;;5101499;28;19924;-74
2024/03/15 04:03:43;;;;;;;;;;;;;;;;;;5098100;28;20342;-73
2024/03/15 04:06:10;;;;;;;;;;;;;;;;;;5093984;28;19931;-73
2024/03/15 04:08:37;;;;;;;;;;;;;;;;;;5081095;28;20300;-73
2024/03/15 04:11:04;;;;;;;;;;;;;;;;;;5083300;28;20456;-72
2024/03/15 04:13:30;;;;;;;;;;;;;;;;;;5082019;28;19936;-71
2024/03/15 04:15:57;;;;;;;;;;;;;;;;;;5086979;28;19986;-73
2024/03/15 04:18:24;;;;;;;;;;;;;;;;;;5103273;28;19923;-74
2024/03/15 04:20:51;;;;;;;;;;;;;;;;;;5091160;28;19925;-74
2024/03/15 04:23:20;;;;;;;;;;;;;;;;;;5096874;28;19928;-74
2024/03/15 04:25:48;;;;;;;;;;;;;;;;;;5100654;28;20280;-71
2024/03/15 04:28:15;;;;;;;;;;;;;;;;;;5094979;28;20380;-74
2024/03/15 04:30:41;;;;;;;;;;;;;;;;;;5089835;28;19924;-73
2024/03/15 04:33:08;;;;;;;;;;;;;;;;;;5088340;28;19927;-73
2024/03/15 04:35:35;;;;;;;;;;;;;;;;;;5074947;28;19928;-72
2024/03/15 04:38:03;;;;;;;;;;;;;;;;;;5077942;28;19925;-74
2024/03/15 04:40:30;;;;;;;;;;;;;;;;;;5076908;28;20444;-74
2024/03/15 04:42:56;;;;;;;;;;;;;;;;;;5098205;28;19935;-73
2024/03/15 04:45:23;;;;;;;;;;;;;;;;;;5094198;28;19968;-72
2024/03/15 04:47:50;;;;;;;;;;;;;;;;;;5095111;28;19925;-73
2024/03/15 04:50:17;;;;;;;;;;;;;;;;;;5100866;28;19930;-74
2024/03/15 04:52:43;;;;;;;;;;;;;;;;;;5096412;28;19962;-73
2024/03/15 04:55:09;;;;;;;;;;;;;;;;;;5101755;28;19927;-74
2024/03/15 04:57:39;;;;;;;;;;;;;;;;;;5095995;28;19924;-72
2024/03/15 05:00:17;;;;;;;;;;;;;;;;;;5096702;28;19924;-73
2024/03/15 05:02:44;;;;;;;;;;;;;;;;;;5079025;28;20384;-72
2024/03/15 05:05:14;;;;;;;;;;;;;;;;;;5095537;28;19930;-73
2024/03/15 05:07:41;;;;;;;;;;;;;;;;;;5084238;28;20026;-72
2024/03/15 05:10:07;;;;;;;;;;;;;;;;;;5091163;28;19924;-72
2024/03/15 05:12:34;;;;;;;;;;;;;;;;;;5092425;28;20304;-74
2024/03/15 05:15:01;;;;;;;;;;;;;;;;;;5101606;28;20381;-73
2024/03/15 05:17:27;;;;;;;;;;;;;;;;;;5097152;28;19924;-76
2024/03/15 05:19:55;;;;;;;;;;;;;;;;;;5107545;28;19924;-72
2024/03/15 05:22:24;;;;;;;;;;;;;;;;;;5087123;28;19960;-72
2024/03/15 05:24:51;;;;;;;;;;;;;;;;;;5098838;28;19931;-72
2024/03/15 05:27:17;;;;;;;;;;;;;;;;;;5100193;28;20368;-73
2024/03/15 05:29:44;;;;;;;;;;;;;;;;;;5087097;28;19930;-72
2024/03/15 05:32:10;;;;;;;;;;;;;;;;;;5104928;28;19989;-73
2024/03/15 05:34:37;;;;;;;;;;;;;;;;;;5101356;27;19924;-74
2024/03/15 05:37:05;;;;;;;;;;;;;;;;;;5096579;28;19931;-74
2024/03/15 05:39:31;;;;;;;;;;;;;;;;;;5094295;28;19927;-73
2024/03/15 05:41:58;;;;;;;;;;;;;;;;;;5095540;28;19923;-74
2024/03/15 05:44:24;;;;;;;;;;;;;;;;;;5082594;28;20295;-74
2024/03/15 05:46:50;;;;;;;;;;;;;;;;;;5096180;28;20011;-74
2024/03/15 05:49:17;;;;;;;;;;;;;;;;;;5085059;28;19947;-72
2024/03/15 05:51:43;;;;;;;;;;;;;;;;;;5097703;28;20004;-72
2024/03/15 05:54:10;;;;;;;;;;;;;;;;;;5076504;28;20333;-74
2024/03/15 05:56:37;;;;;;;;;;;;;;;;;;5085898;28;20336;-73
2024/03/15 05:59:04;;;;;;;;;;;;;;;;;;5074451;28;19925;-75
2024/03/15 06:01:31;;;;;;;;;;;;;;;;;;5093839;28;19963;-74
2024/03/15 06:03:57;;;;;;;;;;;;;;;;;;5073114;28;20015;-73
2024/03/15 06:06:25;;;;;;;;;;;;;;;;;;5098587;28;20383;-73
2024/03/15 06:08:52;;;;;;;;;;;;;;;;;;5073823;28;19997;-74
2024/03/15 06:11:20;;;;;;;;;;;;;;;;;;5084715;28;19928;-72
2024/03/15 06:13:47;;;;;;;;;;;;;;;;;;5081171;28;19935;-73
2024/03/15 06:16:16;;;;;;;;;;;;;;;;;;5086072;28;19925;-72
2024/03/15 06:18:42;;;;;;;;;;;;;;;;;;5087150;28;19932;-71
2024/03/15 06:21:10;;;;;;;;;;;;;;;;;;5094714;28;20364;-73
2024/03/15 06:23:36;;;;;;;;;;;;;;;;;;5090541;28;19924;-74
2024/03/15 06:26:03;;;;;;;;;;;;;;;;;;5092950;28;19925;-71
2024/03/15 06:28:30;;;;;;;;;;;;;;;;;;5095274;28;20376;-74
2024/03/15 06:30:57;;;;;;;;;;;;;;;;;;5096362;28;19934;-74
2024/03/15 06:33:28;;;;;;;;;;;;;;;;;;5097326;28;19978;-74
2024/03/15 06:35:56;;;;;;;;;;;;;;;;;;5095269;28;19924;-73
2024/03/15 06:39:08;;;;;;;;;;;;;;;;;;5102405;28;20814;-72
2024/03/15 06:41:29;;;;;;;;;;;;;;;;;;5088771;28;19931;-72
2024/03/15 06:44:04;;;;;;;;;;;;;;;;;;5075420;28;20023;-73
2024/03/15 06:46:41;;;;;;;;;;;;;;;;;;5092841;28;19978;-74
2024/03/15 06:49:16;;;;;;;;;;;;;;;;;;5088317;28;20376;-73
2024/03/15 06:54:28;;;;;;;;;;;;;;;;;;5092072;28;20042;-74
2024/03/15 06:56:55;;;;;;;;;;;;;;;;;;5076641;28;19947;-73
2024/03/15 06:59:23;;;;;;;;;;;;;;;;;;5095497;28;19932;-74
2024/03/15 07:01:52;;;;;;;;;;;;;;;;;;5072838;28;19928;-73
2024/03/15 07:04:19;;;;;;;;;;;;;;;;;;5091003;28;19924;-74
2024/03/15 07:06:45;;;;;;;;;;;;;;;;;;5093889;28;19969;-75
2024/03/15 07:09:14;;;;;;;;;;;;;;;;;;5106075;28;19973;-74
2024/03/15 07:11:47;;;;;;;;;;;;;;;;;;5088830;28;19924;-74
2024/03/15 07:14:15;;;;;;;;;;;;;;;;;;5099979;28;19977;-74
2024/03/15 07:16:42;;;;;;;;;;;;;;;;;;5067022;28;21309;-74
2024/03/15 07:19:08;;;;;;;;;;;;;;;;;;5089634;28;20402;-74
2024/03/15 07:21:38;;;;;;;;;;;;;;;;;;5098768;28;19930;-74
2024/03/15 07:24:06;;;;;;;;;;;;;;;;;;5081816;28;19924;-72
2024/03/15 07:26:34;;;;;;;;;;;;;;;;;;5093815;28;19932;-75
2024/03/15 07:29:01;;;;;;;;;;;;;;;;;;5098470;28;19927;-75
2024/03/15 07:31:28;;;;;;;;;;;;;;;;;;5088581;28;19930;-75
2024/03/15 07:33:54;;;;;;;;;;;;;;;;;;5093009;28;19924;-76
2024/03/15 07:36:21;;;;;;;;;;;;;;;;;;5090187;28;19928;-75
2024/03/15 07:38:47;;;;;;;;;;;;;;;;;;5095670;28;20306;-77
2024/03/15 07:41:17;;;;;;;;;;;;;;;;;;5088476;28;20033;-76
2024/03/15 07:43:43;;;;;;;;;;;;;;;;;;5090131;28;19974;-75
2024/03/15 07:46:09;;;;;;;;;;;;;;;;;;5086061;28;19971;-76
2024/03/15 07:48:36;;;;;;;;;;;;;;;;;;5087043;28;19931;-76
2024/03/15 07:51:02;;;;;;;;;;;;;;;;;;5085559;28;19934;-77
2024/03/15 07:53:29;;;;;;;;;;;;;;;;;;5087249;28;19928;-75
2024/03/15 07:55:55;;;;;;;;;;;;;;;;;;5086277;28;19959;-73
2024/03/15 07:58:21;;;;;;;;;;;;;;;;;;5083975;28;19931;-76
2024/03/15 08:00:48;;;;;;;;;;;;;;;;;;5094174;28;19931;-74
2024/03/15 08:03:14;;;;;;;;;;;;;;;;;;5084041;28;20463;-77
2024/03/15 08:05:41;;;;;;;;;;;;;;;;;;5094122;28;19939;-76
2024/03/15 08:08:08;;;;;;;;;;;;;;;;;;5092739;28;20694;-74
2024/03/15 08:10:34;;;;;;;;;;;;;;;;;;5096963;28;19932;-76
2024/03/15 08:13:01;;;;;;;;;;;;;;;;;;5089976;28;20405;-76
2024/03/15 08:15:32;;;;;;;;;;;;;;;;;;5091869;28;19927;-76
2024/03/15 08:17:59;;;;;;;;;;;;;;;;;;5092609;28;19928;-77
2024/03/15 08:20:25;;;;;;;;;;;;;;;;;;5088850;28;19928;-75
2024/03/15 08:22:52;;;;;;;;;;;;;;;;;;5092432;28;19928;-73
2024/03/15 08:25:18;;;;;;;;;;;;;;;;;;5091018;28;19930;-76
2024/03/15 08:27:44;;;;;;;;;;;;;;;;;;5093518;28;19938;-76
2024/03/15 08:30:14;;;;;;;;;;;;;;;;;;5089764;28;19973;-74
2024/03/15 08:32:41;;;;;;;;;;;;;;;;;;5095549;28;20019;-76
2024/03/15 08:35:08;;;;;;;;;;;;;;;;;;5092005;28;20343;-74
2024/03/15 08:37:34;;;;;;;;;;;;;;;;;;5096740;28;19924;-74
2024/03/15 08:40:03;;;;;;;;;;;;;;;;;;5099000;28;19939;-75
2024/03/15 08:42:29;;;;;;;;;;;;;;;;;;5090962;28;19928;-76
2024/03/15 08:44:56;;;;;;;;;;;;;;;;;;5093640;28;19924;-76
2024/03/15 08:47:23;;;;;;;;;;;;;;;;;;5088971;28;19925;-76
2024/03/15 08:49:51;;;;;;;;;;;;;;;;;;5103381;28;20185;-76
2024/03/15 08:52:18;;;;;;;;;;;;;;;;;;5089359;28;20024;-76
2024/03/15 08:54:44;;;;;;;;;;;;;;;;;;5097632;28;19931;-77
2024/03/15 08:57:11;;;;;;;;;;;;;;;;;;5092133;28;20365;-77
2024/03/15 08:59:37;;;;;;;;;;;;;;;;;;5095098;28;20488;-76
2024/03/15 09:02:04;;;;;;;;;;;;;;;;;;5093615;28;19947;-77
2024/03/15 09:04:31;;;;;;;;;;;;;;;;;;5102375;28;19944;-76
2024/03/15 09:06:57;;;;;;;;;;;;;;;;;;5091237;28;19936;-74
2024/03/15 09:09:31;;;;;;;;;;;;;;;;;;5093557;28;19924;-76
2024/03/15 09:11:58;;;;;;;;;;;;;;;;;;5100047;28;19927;-76
2024/03/15 09:14:25;;;;;;;;;;;;;;;;;;5097395;28;20550;-76
2024/03/15 09:16:51;;;;;;;;;;;;;;;;;;5094261;28;19924;-76
2024/03/15 09:19:20;;;;;;;;;;;;;;;;;;5096378;28;19931;-74
2024/03/15 09:21:48;;;;;;;;;;;;;;;;;;5103080;28;20385;-76
2024/03/15 09:24:15;;;;;;;;;;;;;;;;;;5093160;28;20233;-76
2024/03/15 09:26:42;;;;;;;;;;;;;;;;;;5087924;28;20023;-75
2024/03/15 09:29:08;;;;;;;;;;;;;;;;;;5096566;28;19928;-76
2024/03/15 09:31:35;;;;;;;;;;;;;;;;;;5075982;28;19924;-74
2024/03/15 09:34:18;;;;;;;;;;;;;;;;;;5087695;28;20376;-75
2024/03/15 09:36:46;;;;;;;;;;;;;;;;;;5086638;28;19928;-74
2024/03/15 09:39:14;;;;;;;;;;;;;;;;;;5087879;28;20319;-76
2024/03/15 09:41:41;;;;;;;;;;;;;;;;;;5089768;28;19951;-75
2024/03/15 09:44:07;;;;;;;;;;;;;;;;;;5090251;28;19932;-76
2024/03/15 09:46:33;;;;;;;;;;;;;;;;;;5091353;28;19987;-76
2024/03/15 09:49:00;;;;;;;;;;;;;;;;;;5097301;28;19934;-76
2024/03/15 09:51:27;;;;;;;;;;;;;;;;;;5095811;28;19928;-75
2024/03/15 09:53:54;;;;;;;;;;;;;;;;;;5095626;28;19934;-76
2024/03/15 09:56:22;;;;;;;;;;;;;;;;;;5097799;28;19951;-77
2024/03/15 09:58:51;;;;;;;;;;;;;;;;;;5077434;28;19989;-77
2024/03/15 10:01:17;;;;;;;;;;;;;;;;;;5092146;28;19946;-76
2024/03/15 10:03:47;;;;;;;;;;;;;;;;;;5083444;28;20279;-76
2024/03/15 10:06:14;;;;;;;;;;;;;;;;;;5098287;28;19927;-76
2024/03/15 10:08:40;;;;;;;;;;;;;;;;;;5087906;28;19978;-75
2024/03/15 10:11:07;;;;;;;;;;;;;;;;;;5100052;28;20372;-75
2024/03/15 10:13:34;;;;;;;;;;;;;;;;;;5094837;28;20314;-75
2024/03/15 10:16:01;;;;;;;;;;;;;;;;;;5096204;28;20414;-77
2024/03/15 10:18:27;;;;;;;;;;;;;;;;;;5083433;28;19971;-74
2024/03/15 10:20:54;;;;;;;;;;;;;;;;;;5081925;28;19930;-76
2024/03/15 10:23:20;;;;;;;;;;;;;;;;;;5088154;28;19928;-76
2024/03/15 10:25:47;;;;;;;;;;;;;;;;;;5093612;28;20245;-76
2024/03/15 10:28:19;;;;;;;;;;;;;;;;;;5093421;28;19994;-76
2024/03/15 10:30:47;;;;;;;;;;;;;;;;;;5084798;28;19928;-76
2024/03/15 10:33:13;;;;;;;;;;;;;;;;;;5080217;28;20024;-77
2024/03/15 10:35:40;;;;;;;;;;;;;;;;;;5088709;28;19939;-75
2024/03/15 10:38:07;;;;;;;;;;;;;;;;;;5092311;28;19971;-77
2024/03/15 10:40:35;;;;;;;;;;;;;;;;;;5088933;28;19962;-77
2024/03/15 10:43:02;;;;;;;;;;;;;;;;;;5094660;28;19925;-76
2024/03/15 10:45:29;;;;;;;;;;;;;;;;;;5093848;28;19925;-76
2024/03/15 10:47:56;;;;;;;;;;;;;;;;;;5075112;28;19928;-77
2024/03/15 10:50:22;;;;;;;;;;;;;;;;;;5093371;28;19951;-74
2024/03/15 10:52:48;;;;;;;;;;;;;;;;;;5089312;28;19924;-77
2024/03/15 10:55:15;;;;;;;;;;;;;;;;;;5091902;28;19924;-76
2024/03/15 10:57:42;;;;;;;;;;;;;;;;;;5093126;28;19924;-76
2024/03/15 11:00:14;;;;;;;;;;;;;;;;;;5097164;28;19943;-76
2024/03/15 11:02:43;;;;;;;;;;;;;;;;;;5087981;28;19950;-76
2024/03/15 11:05:12;;;;;;;;;;;;;;;;;;5095877;28;19923;-76
2024/03/15 11:07:39;;;;;;;;;;;;;;;;;;5093854;28;20288;-75
2024/03/15 11:10:06;;;;;;;;;;;;;;;;;;5100028;28;19959;-76
2024/03/15 11:12:32;;;;;;;;;;;;;;;;;;5097058;28;19975;-75
2024/03/15 11:14:59;;;;;;;;;;;;;;;;;;5090305;28;19928;-75
2024/03/15 11:17:25;;;;;;;;;;;;;;;;;;5094610;28;19951;-75
2024/03/15 11:19:53;;;;;;;;;;;;;;;;;;5086531;28;20272;-75
2024/03/15 11:22:19;;;;;;;;;;;;;;;;;;5096837;28;20001;-76
2024/03/15 11:24:49;;;;;;;;;;;;;;;;;;5088276;28;20272;-75
2024/03/15 11:27:16;;;;;;;;;;;;;;;;;;5095158;28;20412;-76
2024/03/15 11:29:44;;;;;;;;;;;;;;;;;;5091743;28;19959;-76
2024/03/15 11:32:11;;;;;;;;;;;;;;;;;;5094110;28;19959;-74
2024/03/15 11:34:38;;;;;;;;;;;;;;;;;;5095295;28;19924;-76
2024/03/15 11:37:04;;;;;;;;;;;;;;;;;;5092061;28;19924;-76
2024/03/15 11:39:31;;;;;;;;;;;;;;;;;;5092697;28;20463;-77
2024/03/15 11:41:58;;;;;;;;;;;;;;;;;;5087660;28;19932;-76
2024/03/15 11:44:25;;;;;;;;;;;;;;;;;;5095474;28;19928;-76
2024/03/15 11:46:52;;;;;;;;;;;;;;;;;;5087496;28;19928;-77
2024/03/15 11:49:18;;;;;;;;;;;;;;;;;;5096011;28;19924;-74
2024/03/15 11:51:44;;;;;;;;;;;;;;;;;;5090908;28;19985;-76
2024/03/15 11:54:11;;;;;;;;;;;;;;;;;;5096958;28;19997;-76
2024/03/15 11:56:37;;;;;;;;;;;;;;;;;;5093146;28;20326;-76
2024/03/15 11:59:05;;;;;;;;;;;;;;;;;;5094078;28;20369;-77
2024/03/15 12:01:31;;;;;;;;;;;;;;;;;;5098483;28;19927;-76
2024/03/15 12:03:58;;;;;;;;;;;;;;;;;;5087342;28;19935;-76
2024/03/15 12:06:24;;;;;;;;;;;;;;;;;;5092171;28;19970;-77
2024/03/15 12:08:51;;;;;;;;;;;;;;;;;;5089766;28;19928;-77
2024/03/15 12:11:19;;;;;;;;;;;;;;;;;;5100352;28;20615;-77
2024/03/15 12:13:46;;;;;;;;;;;;;;;;;;5091808;28;19935;-76
2024/03/15 12:16:12;;;;;;;;;;;;;;;;;;5097354;28;19924;-76
2024/03/15 12:18:39;;;;;;;;;;;;;;;;;;5099854;28;19931;-76
2024/03/15 12:21:05;;;;;;;;;;;;;;;;;;5101298;28;19929;-76
2024/03/15 12:23:32;;;;;;;;;;;;;;;;;;5098218;28;19924;-75
2024/03/15 12:26:01;;;;;;;;;;;;;;;;;;5095574;28;19931;-75
2024/03/15 12:28:27;;;;;;;;;;;;;;;;;;5097382;28;19924;-76
2024/03/15 12:30:56;;;;;;;;;;;;;;;;;;5087559;28;19943;-76
2024/03/15 12:33:26;;;;;;;;;;;;;;;;;;5098224;28;19963;-76
2024/03/15 12:35:55;;;;;;;;;;;;;;;;;;5094252;28;20314;-76
2024/03/15 12:38:21;;;;;;;;;;;;;;;;;;5094701;28;19934;-76
2024/03/15 12:40:48;;;;;;;;;;;;;;;;;;5091790;28;20421;-75
2024/03/15 12:43:14;;;;;;;;;;;;;;;;;;5098999;28;19934;-75
2024/03/15 12:45:41;;;;;;;;;;;;;;;;;;5098480;28;19932;-76
2024/03/15 12:48:08;;;;;;;;;;;;;;;;;;5086906;28;19928;-76
2024/03/15 12:50:35;;;;;;;;;;;;;;;;;;5103520;28;19942;-76
2024/03/15 12:53:03;;;;;;;;;;;;;;;;;;5077521;28;19927;-76
2024/03/15 12:55:33;;;;;;;;;;;;;;;;;;5099739;28;19924;-75
2024/03/15 12:57:59;;;;;;;;;;;;;;;;;;5093394;28;20032;-76
2024/03/15 13:00:29;;;;;;;;;;;;;;;;;;5111823;28;19930;-75
2024/03/15 13:02:56;;;;;;;;;;;;;;;;;;5086057;28;19931;-76
2024/03/15 13:05:23;;;;;;;;;;;;;;;;;;5103666;28;19928;-75
2024/03/15 13:07:51;;;;;;;;;;;;;;;;;;5109201;28;19954;-76
2024/03/15 13:10:17;;;;;;;;;;;;;;;;;;5104532;28;19946;-75
2024/03/15 13:12:44;;;;;;;;;;;;;;;;;;5073184;28;19935;-75
2024/03/15 13:15:11;;;;;;;;;;;;;;;;;;5096230;28;19931;-76
2024/03/15 13:17:37;;;;;;;;;;;;;;;;;;5101631;28;20022;-76
2024/03/15 13:20:04;;;;;;;;;;;;;;;;;;5090155;28;19978;-76
2024/03/15 13:22:30;;;;;;;;;;;;;;;;;;5087448;28;20019;-76
2024/03/15 13:24:57;;;;;;;;;;;;;;;;;;5087955;28;20398;-76
2024/03/15 13:27:23;;;;;;;;;;;;;;;;;;5092103;28;19989;-76
2024/03/15 13:29:50;;;;;;;;;;;;;;;;;;5076374;28;19924;-76
2024/03/15 13:32:16;;;;;;;;;;;;;;;;;;5090354;28;19925;-76
2024/03/15 13:34:42;;;;;;;;;;;;;;;;;;5095282;28;19935;-76
2024/03/15 13:37:09;;;;;;;;;;;;;;;;;;5088911;28;20018;-75
2024/03/15 13:39:36;;;;;;;;;;;;;;;;;;5088364;28;19934;-75
2024/03/15 13:44:57;;;;;;;;;;;;;;;;;;5090536;28;19928;-75
2024/03/15 13:50:28;;;;;;;;;;;;;;;;;;5096298;28;20381;-75
2024/03/15 13:52:55;;;;;;;;;;;;;;;;;;5096904;28;19927;-75
2024/03/15 13:55:21;;;;;;;;;;;;;;;;;;5101320;28;19954;-76
2024/03/15 13:57:48;;;;;;;;;;;;;;;;;;5087361;28;19925;-75
2024/03/15 14:00:31;;;;;;;;;;;;;;;;;;5097427;28;20030;-76
2024/03/15 14:03:02;;;;;;;;;;;;;;;;;;5089173;28;19966;-74
2024/03/15 14:05:29;;;;;;;;;;;;;;;;;;5094044;28;19928;-75
2024/03/15 14:07:55;;;;;;;;;;;;;;;;;;5090249;28;19928;-75
2024/03/15 14:10:22;;;;;;;;;;;;;;;;;;5092788;28;19924;-75
2024/03/15 14:12:50;;;;;;;;;;;;;;;;;;5094286;28;19935;-75
2024/03/15 14:15:18;;;;;;;;;;;;;;;;;;5084804;28;19976;-76
2024/03/15 14:17:50;;;;;;;;;;;;;;;;;;5096243;28;19981;-75
2024/03/15 14:20:17;;;;;;;;;;;;;;;;;;5084482;28;19932;-77
2024/03/15 14:22:43;;;;;;;;;;;;;;;;;;5095703;28;19925;-76
2024/03/15 14:25:15;;;;;;;;;;;;;;;;;;5087055;28;20290;-77
2024/03/15 14:27:43;;;;;;;;;;;;;;;;;;5077674;28;19931;-76
2024/03/15 14:30:10;;;;;;;;;;;;;;;;;;5100515;28;19964;-77
2024/03/15 14:32:37;;;;;;;;;;;;;;;;;;5085567;28;19928;-75
2024/03/15 14:35:06;;;;;;;;;;;;;;;;;;5107624;28;19930;-76
2024/03/15 14:37:32;;;;;;;;;;;;;;;;;;5103945;28;19924;-76
2024/03/15 14:39:59;;;;;;;;;;;;;;;;;;5083810;28;20346;-76
2024/03/15 14:42:26;;;;;;;;;;;;;;;;;;5107940;28;19930;-76
2024/03/15 14:45:00;;;;;;;;;;;;;;;;;;5085561;28;19924;-76
2024/03/15 14:47:26;;;;;;;;;;;;;;;;;;5093455;28;19924;-77
2024/03/15 14:49:55;;;;;;;;;;;;;;;;;;5092794;28;19925;-76
2024/03/15 14:52:22;;;;;;;;;;;;;;;;;;5094149;28;19928;-76
2024/03/15 14:54:52;;;;;;;;;;;;;;;;;;5080135;28;20025;-75
2024/03/15 14:57:23;;;;;;;;;;;;;;;;;;5089424;28;20038;-76
2024/03/15 14:59:49;;;;;;;;;;;;;;;;;;5090736;28;20257;-76
2024/03/15 15:02:18;;;;;;;;;;;;;;;;;;5088963;28;19924;-76
2024/03/15 15:04:47;;;;;;;;;;;;;;;;;;5090917;28;20291;-76
2024/03/15 15:07:14;;;;;;;;;;;;;;;;;;5101991;28;19981;-76
2024/03/15 15:09:41;;;;;;;;;;;;;;;;;;5090547;28;19928;-76
2024/03/15 15:12:09;;;;;;;;;;;;;;;;;;5071377;28;20367;-77
2024/03/15 15:14:37;;;;;;;;;;;;;;;;;;5073921;28;20039;-76
2024/03/15 15:17:06;;;;;;;;;;;;;;;;;;5098627;28;19959;-77
2024/03/15 15:19:38;;;;;;;;;;;;;;;;;;5093023;28;19930;-76
2024/03/15 15:22:05;;;;;;;;;;;;;;;;;;5079038;28;19924;-75
2024/03/15 15:24:32;;;;;;;;;;;;;;;;;;5100834;28;19924;-75
2024/03/15 15:26:58;;;;;;;;;;;;;;;;;;5091230;28;20028;-76
2024/03/15 15:29:30;;;;;;;;;;;;;;;;;;5107639;28;19959;-76
2024/03/15 15:31:57;;;;;;;;;;;;;;;;;;5086645;28;19931;-76
2024/03/15 15:34:23;;;;;;;;;;;;;;;;;;5088530;28;20366;-75
2024/03/15 15:36:51;;;;;;;;;;;;;;;;;;5095544;28;20373;-75
2024/03/15 15:39:17;;;;;;;;;;;;;;;;;;5093642;28;19924;-76
2024/03/15 15:41:44;;;;;;;;;;;;;;;;;;5094774;28;19924;-76
2024/03/15 15:44:11;;;;;;;;;;;;;;;;;;5082310;28;19963;-75
2024/03/15 15:46:44;;;;;;;;;;;;;;;;;;5072106;28;20360;-75
2024/03/15 15:49:13;;;;;;;;;;;;;;;;;;5084481;28;19924;-75
2024/03/15 15:51:43;;;;;;;;;;;;;;;;;;5091823;28;20377;-75
2024/03/15 15:54:14;;;;;;;;;;;;;;;;;;5090812;28;20352;-75
2024/03/15 15:56:42;;;;;;;;;;;;;;;;;;5085413;28;20354;-76
2024/03/15 15:59:11;;;;;;;;;;;;;;;;;;5073673;28;19924;-75
2024/03/15 16:01:37;;;;;;;;;;;;;;;;;;5085329;28;19925;-76
2024/03/15 16:04:05;;;;;;;;;;;;;;;;;;5089600;28;19924;-75
2024/03/15 16:06:31;;;;;;;;;;;;;;;;;;5083393;28;19928;-76
2024/03/15 16:08:58;;;;;;;;;;;;;;;;;;5089140;28;19924;-76
2024/03/15 16:11:24;;;;;;;;;;;;;;;;;;5087168;28;20424;-73
2024/03/15 16:13:54;;;;;;;;;;;;;;;;;;5092894;28;19989;-76
2024/03/15 16:16:21;;;;;;;;;;;;;;;;;;5091578;28;19924;-74
2024/03/15 16:18:47;;;;;;;;;;;;;;;;;;5095462;28;19928;-74
2024/03/15 16:21:14;;;;;;;;;;;;;;;;;;5094886;28;19924;-75
2024/03/15 16:23:42;;;;;;;;;;;;;;;;;;5084407;28;20373;-76
2024/03/15 16:26:09;;;;;;;;;;;;;;;;;;5095132;28;19924;-75
2024/03/15 16:28:37;;;;;;;;;;;;;;;;;;5098686;28;19982;-76
2024/03/15 16:31:03;;;;;;;;;;;;;;;;;;5085681;28;19924;-76
2024/03/15 16:33:29;;;;;;;;;;;;;;;;;;5097254;28;19924;-77
2024/03/15 16:35:56;;;;;;;;;;;;;;;;;;5075022;28;19924;-77
2024/03/15 16:38:23;;;;;;;;;;;;;;;;;;5096492;28;19978;-77
2024/03/15 16:40:49;;;;;;;;;;;;;;;;;;5080647;28;19975;-79
2024/03/15 16:43:16;;;;;;;;;;;;;;;;;;5096998;28;19928;-77
2024/03/15 16:45:42;;;;;;;;;;;;;;;;;;5101858;28;19971;-77
2024/03/15 16:48:09;;;;;;;;;;;;;;;;;;5103377;28;19924;-76
2024/03/15 16:50:37;;;;;;;;;;;;;;;;;;5088644;28;19924;-76
2024/03/15 16:53:03;;;;;;;;;;;;;;;;;;5102834;28;20019;-78
2024/03/15 16:55:33;;;;;;;;;;;;;;;;;;5101247;28;19924;-78